Time;durP1;ratioP1;P1;durP2;ratioP2;P2;SDS_P1;SDS_P2;PMS_P1;PMS_P2;Temp;Humidity;BMP_temperature;BMP_pressure;BME280_temperature;BME280_humidity;BME280_pressure;Samples;Min_cycle;Max_cycle;Signal;HPM_P1;HPM_P2
2023/01/28 00:00:56;;;;;;;0.60;0.60;;;;;;;1.20;82.49;101567.41;5086748;28;20024;-75
2023/01/28 00:03:22;;;;;;;0.50;0.50;;;;;;;1.23;82.50;101557.34;5104646;28;20028;-75
2023/01/28 00:05:47;;;;;;;0.60;0.60;;;;;;;1.29;81.93;101554.19;5104819;28;20107;-76
2023/01/28 00:08:13;;;;;;;0.50;0.50;;;;;;;1.30;82.24;101549.16;5086488;28;20495;-75
2023/01/28 00:10:39;;;;;;;0.50;0.50;;;;;;;1.34;82.38;101551.03;5104936;28;20031;-75
2023/01/28 00:13:06;;;;;;;1.67;1.60;;;;;;;1.31;82.50;101527.00;5104997;28;20023;-75
2023/01/28 00:15:32;;;;;;;0.60;0.60;;;;;;;1.31;82.20;101534.69;5086517;28;20020;-75
2023/01/28 00:17:57;;;;;;;0.55;0.55;;;;;;;1.34;82.42;101540.81;5104837;28;20085;-75
2023/01/28 00:20:22;;;;;;;0.50;0.50;;;;;;;1.33;82.49;101540.72;5104566;28;20055;-75
2023/01/28 00:22:48;;;;;;;0.70;0.70;;;;;;;1.33;83.13;101538.16;5086516;28;20464;-75
2023/01/28 00:25:14;;;;;;;0.60;0.60;;;;;;;1.31;83.08;101521.91;5104900;28;20064;-76
2023/01/28 00:27:40;;;;;;;0.60;0.60;;;;;;;1.41;83.37;101534.31;5105161;28;20042;-75
2023/01/28 00:30:06;;;;;;;0.60;0.60;;;;;;;1.38;83.52;101507.69;5105499;28;20098;-75
2023/01/28 00:32:31;;;;;;;0.68;0.68;;;;;;;1.41;83.36;101529.19;5105142;28;20487;-76
2023/01/28 00:34:57;;;;;;;0.50;0.50;;;;;;;1.38;83.76;101515.38;5104253;28;20373;-76
2023/01/28 00:37:22;;;;;;;0.60;0.60;;;;;;;1.45;83.33;101517.44;5086198;28;20058;-76
2023/01/28 00:39:48;;;;;;;0.50;0.50;;;;;;;1.46;83.72;101503.81;5104041;28;20024;-76
2023/01/28 00:42:14;;;;;;;0.50;0.50;;;;;;;1.48;84.03;101505.66;5104010;28;20051;-76
2023/01/28 00:44:40;;;;;;;0.60;0.60;;;;;;;1.48;84.15;101509.88;5085904;28;20472;-76
2023/01/28 00:47:05;;;;;;;0.60;0.60;;;;;;;1.46;83.85;101504.69;5085701;28;20024;-76
2023/01/28 00:49:30;;;;;;;0.70;0.70;;;;;;;1.47;84.18;101501.31;5104262;28;20086;-76
2023/01/28 00:51:56;;;;;;;0.50;0.50;;;;;;;1.48;84.52;101487.75;5085992;28;20035;-75
2023/01/28 00:54:21;;;;;;;0.57;0.57;;;;;;;1.53;84.58;101484.50;5103775;28;20019;-76
2023/01/28 00:56:47;;;;;;;0.50;0.50;;;;;;;1.55;84.33;101477.78;5104000;28;20016;-77
2023/01/28 00:59:12;;;;;;;0.50;0.50;;;;;;;1.48;84.39;101467.25;5104058;28;20190;-76
2023/01/28 01:01:38;;;;;;;0.57;0.57;;;;;;;1.48;84.45;101474.94;5104369;28;20035;-77
2023/01/28 01:04:04;;;;;;;0.50;0.50;;;;;;;1.47;84.61;101474.88;5085794;28;20410;-77
2023/01/28 01:06:36;;;;;;;0.50;0.50;;;;;;;1.43;84.63;101463.59;5103933;28;20024;-76
2023/01/28 01:09:04;;;;;;;0.70;0.70;;;;;;;1.37;84.65;101453.09;5085728;28;20020;-75
2023/01/28 01:11:29;;;;;;;0.80;0.80;;;;;;;1.43;84.54;101460.16;5102762;28;20161;-75
2023/01/28 01:13:57;;;;;;;0.50;0.50;;;;;;;1.45;85.01;101461.97;5103953;28;20466;-76
2023/01/28 01:16:25;;;;;;;2.30;2.20;;;;;;;1.45;85.13;101454.28;5104028;28;20038;-75
2023/01/28 01:18:52;;;;;;;0.57;0.57;;;;;;;1.48;85.53;101448.47;5103816;28;20080;-75
2023/01/28 01:21:21;;;;;;;0.52;0.52;;;;;;;1.48;85.32;101446.78;5103892;28;20028;-75
2023/01/28 01:23:46;;;;;;;0.55;0.55;;;;;;;1.42;85.33;101436.25;5103753;28;20020;-74
2023/01/28 01:26:13;;;;;;;0.85;0.85;;;;;;;1.43;85.06;101438.03;5103941;28;20035;-75
2023/01/28 01:28:38;;;;;;;0.50;0.50;;;;;;;1.45;85.62;101438.94;5104013;28;20050;-77
2023/01/28 01:31:07;;;;;;;0.50;0.50;;;;;;;1.45;85.86;101427.84;5103808;28;20028;-75
2023/01/28 01:33:33;;;;;;;0.60;0.60;;;;;;;1.54;85.85;101419.69;5103723;28;20016;-75
2023/01/28 01:35:58;;;;;;;0.60;0.60;;;;;;;1.56;86.25;101416.44;5102486;28;20028;-75
2023/01/28 01:38:25;;;;;;;0.60;0.60;;;;;;;1.48;86.22;101405.84;5103232;28;20119;-74
2023/01/28 01:40:50;;;;;;;0.50;0.50;;;;;;;1.61;86.41;101416.63;5103918;28;20020;-75
2023/01/28 01:43:18;;;;;;;0.50;0.50;;;;;;;1.64;86.28;101416.75;5103590;28;20071;-75
2023/01/28 01:45:54;;;;;;;0.52;0.52;;;;;;;1.65;86.34;101413.38;5103747;28;20054;-75
2023/01/28 01:48:25;;;;;;;0.60;0.60;;;;;;;1.63;86.47;101415.00;5085411;28;20051;-75
2023/01/28 01:50:57;;;;;;;0.70;0.70;;;;;;;1.72;86.33;101415.44;5103933;28;20087;-76
2023/01/28 01:53:24;;;;;;;0.50;0.50;;;;;;;1.74;86.36;101418.06;5103478;28;20016;-76
2023/01/28 01:55:54;;;;;;;0.50;0.50;;;;;;;1.74;86.70;101415.50;5103683;28;20024;-76
2023/01/28 01:58:24;;;;;;;0.98;0.98;;;;;;;1.73;86.56;101401.81;5103737;28;20464;-76
2023/01/28 02:00:50;;;;;;;0.50;0.50;;;;;;;1.77;86.61;101412.19;5106461;28;20031;-77
2023/01/28 02:03:21;;;;;;;0.50;0.50;;;;;;;1.79;86.95;101418.25;5107107;28;20081;-75
2023/01/28 02:05:49;;;;;;;0.60;0.60;;;;;;;1.78;86.66;101403.69;5107410;28;20028;-77
2023/01/28 02:08:20;;;;;;;0.60;0.60;;;;;;;1.83;86.94;101407.34;5107251;28;20019;-76
2023/01/28 02:10:49;;;;;;;0.50;0.50;;;;;;;1.83;87.14;101403.09;5107096;28;20025;-75
2023/01/28 02:13:17;;;;;;;0.60;0.60;;;;;;;1.87;87.06;101403.22;5107175;28;20396;-77
2023/01/28 02:15:43;;;;;;;0.50;0.50;;;;;;;1.91;87.17;101402.53;5088683;28;20028;-75
2023/01/28 02:18:09;;;;;;;0.60;0.60;;;;;;;1.85;86.97;101390.34;5088843;28;20024;-75
2023/01/28 02:21:03;;;;;;;0.50;0.50;;;;;;;1.87;86.75;101393.84;5106976;28;20134;-74
2023/01/28 02:23:49;;;;;;;0.50;0.50;;;;;;;1.84;86.69;101380.91;5106640;28;20031;-75
2023/01/28 02:26:48;;;;;;;0.50;0.50;;;;;;;1.85;86.70;101375.84;5106778;28;20020;-71
2023/01/28 02:29:28;;;;;;;0.50;0.50;;;;;;;1.84;86.87;101383.47;5105482;28;20020;-72
2023/01/28 02:32:18;;;;;;;0.50;0.50;;;;;;;1.78;86.86;101372.97;5106662;28;20024;-72
2023/01/28 02:34:55;;;;;;;0.50;0.50;;;;;;;1.84;86.98;101376.66;5106554;28;20028;-73
2023/01/28 02:37:25;;;;;;;0.50;0.50;;;;;;;1.89;87.12;101384.53;5106628;28;20464;-73
2023/01/28 02:39:55;;;;;;;0.57;0.57;;;;;;;1.88;87.26;101370.00;5106452;28;20032;-72
2023/01/28 02:42:28;;;;;;;0.50;0.50;;;;;;;1.86;87.11;101356.25;5109222;28;20020;-73
2023/01/28 02:44:53;;;;;;;0.50;0.50;;;;;;;1.88;87.08;101370.00;5089300;28;20039;-72
2023/01/28 02:50:08;;;;;;;0.55;0.55;;;;;;;1.84;87.10;101361.31;5106637;28;20034;-71
2023/01/28 02:55:43;;;;;;;0.50;0.50;;;;;;;1.88;87.36;101353.75;5106245;28;20065;-72
2023/01/28 02:58:31;;;;;;;0.60;0.60;;;;;;;1.87;87.40;101359.69;5094498;28;20050;-72
2023/01/28 03:01:15;;;;;;;0.50;0.50;;;;;;;1.90;87.04;101355.56;5087706;28;20035;-73
2023/01/28 03:03:45;;;;;;;0.50;0.50;;;;;;;1.91;87.38;101344.53;5087773;28;20024;-71
2023/01/28 03:06:17;;;;;;;0.50;0.50;;;;;;;1.89;87.15;101340.13;5106268;28;20020;-70
2023/01/28 03:36:48;;;;;;;0.57;0.57;;;;;;;2.05;87.09;101308.34;5105533;28;20031;-71
2023/01/28 03:39:15;;;;;;;0.50;0.50;;;;;;;2.04;86.49;101309.16;5105274;28;20024;-72
2023/01/28 03:41:41;;;;;;;0.50;0.50;;;;;;;2.02;86.61;101303.09;5105505;28;20031;-73
2023/01/28 03:46:50;;;;;;;0.50;0.50;;;;;;;2.05;86.48;101306.66;5105503;28;20050;-73
2023/01/28 03:49:16;;;;;;;0.50;0.50;;;;;;;2.06;86.47;101305.00;5086910;28;20084;-74
2023/01/28 03:51:42;;;;;;;0.50;0.50;;;;;;;2.08;86.45;101305.91;5086813;28;20035;-73
2023/01/28 03:54:08;;;;;;;0.63;0.63;;;;;;;2.09;86.22;101297.44;5104842;28;20467;-74
2023/01/28 03:56:36;;;;;;;0.50;0.50;;;;;;;2.07;86.35;101294.81;5105396;28;20035;-73
2023/01/28 03:59:06;;;;;;;0.50;0.50;;;;;;;2.09;86.36;101300.00;5086782;28;20027;-75
2023/01/28 04:01:31;;;;;;;0.60;0.60;;;;;;;2.08;86.22;101295.66;5105076;28;20032;-75
2023/01/28 04:03:57;;;;;;;0.50;0.50;;;;;;;2.01;86.13;101289.44;5086750;28;20070;-74
2023/01/28 04:06:23;;;;;;;0.90;0.90;;;;;;;2.15;85.95;101305.38;5104782;28;20024;-74
2023/01/28 04:08:52;;;;;;;0.50;0.50;;;;;;;2.15;86.11;101307.94;5086609;28;20029;-74
2023/01/28 04:11:20;;;;;;;2.10;1.63;;;;;;;2.12;86.25;101287.31;5104990;28;20024;-75
2023/01/28 04:13:47;;;;;;;0.52;0.52;;;;;;;2.17;86.27;101292.63;5103350;28;20047;-75
2023/01/28 04:16:15;;;;;;;0.50;0.50;;;;;;;2.20;86.47;101295.31;5086512;28;20028;-74
2023/01/28 04:18:41;;;;;;;0.52;0.52;;;;;;;2.19;86.34;101288.44;5104609;28;20024;-74
2023/01/28 04:21:07;;;;;;;0.60;0.60;;;;;;;2.22;86.25;101289.41;5104758;28;20024;-74
2023/01/28 04:23:32;;;;;;;0.50;0.50;;;;;;;2.23;86.41;101288.63;5104157;28;20027;-74
2023/01/28 04:25:58;;;;;;;0.50;0.50;;;;;;;2.21;85.97;101285.13;5104671;28;20061;-74
2023/01/28 04:28:23;;;;;;;0.50;0.50;;;;;;;2.22;86.21;101284.28;5086476;28;20456;-74
2023/01/28 04:30:48;;;;;;;0.50;0.50;;;;;;;2.20;86.25;101273.13;5104489;28;20046;-75
2023/01/28 04:33:14;;;;;;;0.50;0.50;;;;;;;2.23;86.41;101280.94;5104460;28;20020;-74
2023/01/28 04:35:39;;;;;;;0.60;0.60;;;;;;;2.15;86.33;101261.81;5104399;28;20020;-75
2023/01/28 04:38:05;;;;;;;0.50;0.50;;;;;;;2.23;86.70;101264.69;5104252;28;20053;-74
2023/01/28 04:40:30;;;;;;;0.50;0.50;;;;;;;2.25;86.51;101262.19;5104352;28;20051;-75
2023/01/28 04:42:56;;;;;;;0.50;0.50;;;;;;;2.19;86.77;101247.44;5085897;28;20087;-75
2023/01/28 04:45:22;;;;;;;0.52;0.52;;;;;;;2.20;86.61;101259.44;5104287;28;20073;-75
2023/01/28 04:47:48;;;;;;;0.50;0.50;;;;;;;2.22;86.90;101268.91;5104365;28;20405;-74
2023/01/28 04:50:14;;;;;;;0.50;0.50;;;;;;;2.23;87.09;101257.88;5104199;28;20440;-75
2023/01/28 04:52:40;;;;;;;0.50;0.50;;;;;;;2.28;87.19;101265.75;5104386;28;20076;-74
2023/01/28 04:55:06;;;;;;;0.50;0.50;;;;;;;2.26;86.99;101254.56;5104121;28;20031;-75
2023/01/28 04:57:31;;;;;;;0.50;0.50;;;;;;;2.29;87.26;101241.84;5104259;28;20020;-74
2023/01/28 04:59:57;;;;;;;0.52;0.52;;;;;;;2.27;86.98;101240.06;5085906;28;20028;-75
2023/01/28 05:02:23;;;;;;;0.50;0.50;;;;;;;2.29;87.25;101238.41;5104451;28;20027;-75
2023/01/28 05:04:48;;;;;;;0.60;0.60;;;;;;;2.25;87.38;101224.63;5103995;28;20024;-75
2023/01/28 05:07:13;;;;;;;0.52;0.52;;;;;;;2.32;87.62;101235.97;5104371;28;20031;-75
2023/01/28 05:09:39;;;;;;;0.55;0.55;;;;;;;2.30;87.76;101215.41;5104108;28;20020;-75
2023/01/28 05:12:04;;;;;;;0.50;0.50;;;;;;;2.33;87.51;101219.78;5104054;28;20348;-74
2023/01/28 05:14:30;;;;;;;0.45;0.45;;;;;;;2.27;87.49;101209.31;5104019;28;20502;-74
2023/01/28 05:16:55;;;;;;;0.60;0.60;;;;;;;2.31;87.45;101213.72;5104243;28;20484;-75
2023/01/28 05:19:21;;;;;;;0.50;0.50;;;;;;;2.30;87.67;101205.16;5103996;28;20488;-75
2023/01/28 05:21:46;;;;;;;0.60;0.60;;;;;;;2.28;87.80;101195.69;5104024;28;20020;-74
2023/01/28 05:24:11;;;;;;;0.50;0.50;;;;;;;2.26;87.77;101187.94;5103720;28;20040;-75
2023/01/28 05:26:37;;;;;;;0.60;0.60;;;;;;;2.21;88.04;101187.75;5085761;28;20024;-73
2023/01/28 05:29:03;;;;;;;0.47;0.47;;;;;;;2.25;88.01;101201.56;5103922;28;20050;-72
2023/01/28 05:31:28;;;;;;;0.60;0.60;;;;;;;2.23;88.08;101198.94;5103859;28;20054;-73
2023/01/28 05:33:53;;;;;;;0.50;0.50;;;;;;;2.22;88.33;101202.31;5103789;28;20024;-73
2023/01/28 05:36:19;;;;;;;0.50;0.50;;;;;;;2.28;88.08;101211.03;5107460;28;20024;-73
2023/01/28 05:38:44;;;;;;;0.50;0.50;;;;;;;2.23;88.20;101193.81;5089248;28;20373;-73
2023/01/28 05:41:10;;;;;;;0.50;0.50;;;;;;;2.31;88.40;101213.72;5107770;28;20237;-73
2023/01/28 05:43:35;;;;;;;0.50;0.50;;;;;;;2.33;88.33;101200.16;5108626;28;20105;-73
2023/01/28 05:46:01;;;;;;;0.50;0.50;;;;;;;2.30;88.29;101201.75;5109728;28;20024;-73
2023/01/28 05:48:26;;;;;;;0.50;0.50;;;;;;;2.29;88.16;101202.53;5109857;28;20027;-72
2023/01/28 05:50:52;;;;;;;0.60;0.60;;;;;;;2.28;88.38;101203.38;5090095;28;20031;-73
2023/01/28 05:53:18;;;;;;;0.50;0.50;;;;;;;2.36;88.41;101209.66;5108539;28;20024;-73
2023/01/28 05:55:47;;;;;;;0.60;0.60;;;;;;;2.30;88.51;101197.47;5107812;28;20054;-71
2023/01/28 05:58:12;;;;;;;0.60;0.60;;;;;;;2.38;88.27;101207.16;5107897;28;20109;-74
2023/01/28 06:00:37;;;;;;;0.70;0.70;;;;;;;2.38;88.48;101207.16;5089008;28;20465;-75
2023/01/28 06:03:03;;;;;;;0.50;0.50;;;;;;;2.37;88.31;101216.53;5106063;28;20039;-73
2023/01/28 06:05:28;;;;;;;0.60;0.60;;;;;;;2.37;88.39;101223.31;5107149;28;20028;-74
2023/01/28 06:07:54;;;;;;;0.50;0.50;;;;;;;2.37;88.54;101225.88;5105687;28;20027;-72
2023/01/28 06:10:19;;;;;;;0.50;0.50;;;;;;;2.36;88.67;101222.47;5107145;28;20080;-73
2023/01/28 06:12:45;;;;;;;47.88;4.00;;;;;;;2.29;88.91;101212.78;5088951;28;20020;-73
2023/01/28 06:15:10;;;;;;;0.50;0.50;;;;;;;2.33;88.75;101219.78;5105673;28;20020;-73
2023/01/28 06:17:36;;;;;;;0.55;0.55;;;;;;;2.31;89.15;101214.63;5107054;28;20380;-74
2023/01/28 06:20:02;;;;;;;0.60;0.60;;;;;;;2.27;89.37;101209.31;5106922;28;20028;-73
2023/01/28 06:22:27;;;;;;;0.50;0.50;;;;;;;2.28;89.54;101204.25;5106853;28;20028;-73
2023/01/28 06:24:53;;;;;;;0.50;0.50;;;;;;;2.31;89.58;101218.84;5106527;28;20091;-72
2023/01/28 06:27:18;;;;;;;0.50;0.50;;;;;;;2.35;89.94;101210.47;5106840;28;20039;-72
2023/01/28 06:29:43;;;;;;;0.60;0.60;;;;;;;2.35;89.93;101206.22;5106969;28;20020;-73
2023/01/28 06:32:09;;;;;;;0.60;0.60;;;;;;;2.30;90.23;101189.78;5106863;28;20106;-73
2023/01/28 06:34:34;;;;;;;0.50;0.50;;;;;;;2.39;90.17;101199.53;5106820;28;20115;-72
2023/01/28 06:37:00;;;;;;;1.25;1.25;;;;;;;2.43;90.29;101209.06;5106766;28;20024;-72
2023/01/28 06:39:27;;;;;;;0.50;0.50;;;;;;;2.37;90.29;101195.13;5106287;28;20040;-72
2023/01/28 06:41:53;;;;;;;0.50;0.50;;;;;;;2.42;90.35;101199.66;5088341;28;20031;-72
2023/01/28 06:44:18;;;;;;;0.50;0.50;;;;;;;2.44;90.49;101207.38;5106741;28;20048;-73
2023/01/28 06:46:44;;;;;;;0.50;0.50;;;;;;;2.46;90.57;101200.66;5087841;28;20034;-72
2023/01/28 06:49:09;;;;;;;0.50;0.50;;;;;;;2.47;90.68;101205.81;5106702;28;20040;-72
2023/01/28 06:51:35;;;;;;;0.50;0.50;;;;;;;2.44;90.65;101218.53;5106406;28;20046;-73
2023/01/28 06:54:00;;;;;;;0.50;0.50;;;;;;;2.40;90.80;101208.94;5106059;28;20024;-73
2023/01/28 06:56:26;;;;;;;0.50;0.50;;;;;;;2.45;91.09;101207.44;5105007;28;20024;-73
2023/01/28 06:58:51;;;;;;;0.60;0.60;;;;;;;2.48;90.76;101215.25;5106082;28;20543;-73
2023/01/28 07:01:16;;;;;;;0.50;0.50;;;;;;;2.46;90.92;101209.19;5087996;28;20091;-74
2023/01/28 07:03:42;;;;;;;0.55;0.55;;;;;;;2.40;91.18;101202.94;5106242;28;20480;-73
2023/01/28 07:06:07;;;;;;;0.50;0.50;;;;;;;2.45;91.28;101207.44;5106062;28;20028;-73
2023/01/28 07:08:33;;;;;;;0.60;0.60;;;;;;;2.48;91.23;101219.50;5105973;28;20574;-73
2023/01/28 07:10:59;;;;;;;0.50;0.50;;;;;;;2.43;91.29;101203.09;5106005;28;20051;-73
2023/01/28 07:13:24;;;;;;;0.40;0.40;;;;;;;2.44;91.44;101180.09;5106007;28;20083;-73
2023/01/28 07:15:50;;;;;;;0.50;0.50;;;;;;;2.44;91.27;101181.75;5105868;28;20057;-73
2023/01/28 07:18:16;;;;;;;0.52;0.52;;;;;;;2.53;91.37;101188.91;5105632;28;20020;-73
2023/01/28 07:20:41;;;;;;;0.50;0.50;;;;;;;2.47;91.47;101189.56;5105872;28;20031;-73
2023/01/28 07:23:07;;;;;;;0.50;0.50;;;;;;;2.40;91.50;101185.00;5105579;28;20028;-73
2023/01/28 07:25:32;;;;;;;0.50;0.50;;;;;;;2.56;91.62;101202.72;5105802;28;20081;-72
2023/01/28 07:27:58;;;;;;;0.50;0.50;;;;;;;2.57;91.40;101195.91;5087485;28;20024;-73
2023/01/28 07:30:24;;;;;;;0.50;0.50;;;;;;;2.60;91.51;101193.47;5105752;28;20020;-73
2023/01/28 07:32:54;;;;;;;0.50;0.50;;;;;;;2.57;91.49;101193.34;5105580;28;20127;-72
2023/01/28 07:35:20;;;;;;;0.95;0.95;;;;;;;2.63;91.47;101219.22;5105265;28;20405;-72
2023/01/28 07:37:57;;;;;;;0.50;0.50;;;;;;;2.60;91.40;101196.03;5105717;28;20031;-73
2023/01/28 07:40:24;;;;;;;0.50;0.50;;;;;;;2.63;91.38;101216.66;5087089;28;20083;-73
2023/01/28 07:42:49;;;;;;;0.50;0.50;;;;;;;2.68;91.15;101212.56;5086901;28;20048;-73
2023/01/28 07:45:15;;;;;;;0.50;0.50;;;;;;;2.60;91.61;101204.56;5105260;28;20415;-73
2023/01/28 07:47:41;;;;;;;0.90;0.90;;;;;;;2.59;91.31;101205.41;5086994;28;20113;-73
2023/01/28 07:50:08;;;;;;;0.50;0.50;;;;;;;2.64;91.67;101197.88;5087098;28;20046;-73
2023/01/28 07:52:40;;;;;;;0.60;0.60;;;;;;;2.71;91.63;101206.69;5105244;28;20051;-72
2023/01/28 07:55:06;;;;;;;0.50;0.50;;;;;;;2.65;91.71;101197.03;5070691;28;20028;-74
2023/01/28 07:57:31;;;;;;;0.50;0.50;;;;;;;2.73;91.84;101211.03;5104487;28;20102;-74
2023/01/28 07:59:56;;;;;;;0.50;0.50;;;;;;;2.68;91.94;101191.19;5105198;28;20035;-74
2023/01/28 08:02:22;;;;;;;0.55;0.55;;;;;;;2.70;91.82;101200.66;5104969;28;20554;-73
2023/01/28 08:04:47;;;;;;;0.50;0.50;;;;;;;2.73;91.86;101205.06;5086761;28;20505;-73
2023/01/28 08:07:13;;;;;;;2.85;1.92;;;;;;;2.78;91.84;101195.81;5104892;28;20104;-74
2023/01/28 08:09:38;;;;;;;0.50;0.50;;;;;;;2.78;91.79;101198.38;5104618;28;20027;-73
2023/01/28 08:12:04;;;;;;;0.50;0.50;;;;;;;2.76;91.89;101189.78;5105032;28;20028;-73
2023/01/28 08:14:29;;;;;;;1.50;1.40;;;;;;;2.78;91.84;101179.56;5104699;28;20031;-73
2023/01/28 08:16:54;;;;;;;0.47;0.47;;;;;;;2.83;91.86;101178.03;5104779;28;20020;-73
2023/01/28 08:19:20;;;;;;;1.08;1.08;;;;;;;2.87;92.03;101173.88;5104497;28;20024;-73
2023/01/28 08:21:49;;;;;;;0.43;0.43;;;;;;;2.92;91.87;101180.94;5103687;28;20022;-73
2023/01/28 08:24:16;;;;;;;0.50;0.50;;;;;;;2.92;91.90;101159.53;5104268;28;20028;-73
2023/01/28 08:26:41;;;;;;;0.50;0.50;;;;;;;2.94;91.72;101157.91;5104818;28;20052;-72
2023/01/28 08:29:07;;;;;;;0.50;0.50;;;;;;;2.94;91.50;101170.75;5104639;28;20047;-73
2023/01/28 08:31:32;;;;;;;0.50;0.50;;;;;;;2.94;91.56;101156.19;5086301;28;20039;-74
2023/01/28 08:33:57;;;;;;;0.50;0.50;;;;;;;2.95;91.43;101151.94;5104519;28;20020;-73
2023/01/28 08:36:23;;;;;;;0.50;0.50;;;;;;;2.97;91.53;101142.63;5104697;28;20051;-72
2023/01/28 08:38:53;;;;;;;0.50;0.50;;;;;;;3.04;91.56;101147.13;5104299;28;20031;-73
2023/01/28 08:41:21;;;;;;;0.50;0.50;;;;;;;3.06;91.53;101157.44;5103280;28;20027;-73
2023/01/28 08:43:46;;;;;;;0.50;0.50;;;;;;;3.12;91.60;101161.91;5086459;28;20036;-73
2023/01/28 08:46:12;;;;;;;0.50;0.50;;;;;;;3.12;91.42;101137.13;5109775;28;20043;-74
2023/01/28 08:48:37;;;;;;;0.50;0.50;;;;;;;3.11;91.11;101143.09;5110096;28;20506;-74
2023/01/28 08:51:03;;;;;;;0.50;0.50;;;;;;;3.13;91.11;101144.00;5104114;28;20472;-74
2023/01/28 08:53:28;;;;;;;1.05;1.05;;;;;;;3.17;90.94;101133.03;5085992;28;20139;-75
2023/01/28 08:55:54;;;;;;;0.50;0.50;;;;;;;3.17;90.88;101124.47;5104179;28;20047;-74
2023/01/28 08:58:19;;;;;;;0.50;0.50;;;;;;;3.17;90.83;101132.16;5086268;28;20099;-74
2023/01/28 09:00:45;;;;;;;0.50;0.50;;;;;;;3.18;90.36;101136.50;5104214;28;20083;-75
2023/01/28 09:03:10;;;;;;;0.50;0.50;;;;;;;3.18;90.49;101141.63;5086004;28;20088;-74
2023/01/28 09:05:37;;;;;;;0.50;0.50;;;;;;;3.18;90.35;101147.59;5104124;28;20024;-74
2023/01/28 09:08:08;;;;;;;0.50;0.50;;;;;;;3.15;90.44;101144.06;5085862;28;20046;-75
2023/01/28 09:10:36;;;;;;;0.50;0.50;;;;;;;3.17;90.27;101133.03;5108402;28;20028;-74
2023/01/28 09:13:10;;;;;;;0.50;0.50;;;;;;;3.18;90.27;101124.50;5090054;28;20028;-74
2023/01/28 09:15:36;;;;;;;0.50;0.50;;;;;;;3.17;90.20;101133.03;5089844;28;20024;-75
2023/01/28 09:18:02;;;;;;;0.50;0.50;;;;;;;3.12;89.99;101126.00;5089941;28;20026;-75
2023/01/28 09:20:28;;;;;;;0.55;0.55;;;;;;;3.15;90.28;101126.09;5108253;28;20070;-75
2023/01/28 09:22:53;;;;;;;0.50;0.50;;;;;;;3.12;90.77;101124.31;5108267;28;20020;-74
2023/01/28 09:25:19;;;;;;;0.50;0.50;;;;;;;3.24;90.58;101116.16;5107662;28;20036;-75
2023/01/28 09:27:45;;;;;;;0.50;0.50;;;;;;;3.25;90.28;101107.63;5108160;28;20020;-74
2023/01/28 09:30:12;;;;;;;0.50;0.50;;;;;;;3.24;90.14;101116.16;5107919;28;20016;-69
2023/01/28 09:32:38;;;;;;;0.50;0.50;;;;;;;3.16;90.41;101102.19;5107999;28;20028;-74
2023/01/28 09:35:04;;;;;;;0.50;0.50;;;;;;;3.28;90.15;101129.94;5072771;28;20098;-73
2023/01/28 09:37:29;;;;;;;0.60;0.60;;;;;;;3.21;90.19;101106.66;5107895;28;20054;-74
2023/01/28 09:39:55;;;;;;;0.50;0.50;;;;;;;3.34;90.38;101110.50;5089271;28;20414;-75
2023/01/28 09:42:30;;;;;;;0.50;0.50;;;;;;;3.38;90.36;101128.56;5107663;28;20024;-73
2023/01/28 09:45:01;;;;;;;0.50;0.50;;;;;;;3.38;90.31;101124.31;5107822;28;20081;-73
2023/01/28 09:47:36;;;;;;;0.50;0.50;;;;;;;3.39;90.20;101108.06;5089706;28;20419;-73
2023/01/28 09:50:07;;;;;;;0.50;0.50;;;;;;;3.35;90.02;101104.53;5089278;28;20107;-76
2023/01/28 09:52:39;;;;;;;0.50;0.50;;;;;;;3.32;89.86;101095.88;5089481;28;20020;-75
2023/01/28 09:55:11;;;;;;;0.57;0.57;;;;;;;3.32;90.10;101107.00;5107193;28;20020;-75
2023/01/28 09:57:41;;;;;;;0.50;0.50;;;;;;;3.26;90.16;101093.97;5089308;28;20111;-72
2023/01/28 10:00:27;;;;;;;0.50;0.50;;;;;;;3.27;89.96;101108.56;5089145;28;20544;-75
2023/01/28 10:03:16;;;;;;;1.88;1.77;;;;;;;3.28;90.05;101109.41;5089430;28;20432;-73
2023/01/28 10:06:33;;;;;;;0.50;0.50;;;;;;;3.25;89.73;101106.75;5107362;28;20035;-73
2023/01/28 10:09:10;;;;;;;0.50;0.50;;;;;;;3.20;90.07;101099.78;4988554;28;20050;-72
2023/01/28 10:12:00;;;;;;;0.50;0.50;;;;;;;3.17;90.14;101102.25;4988740;28;20104;-73
2023/01/28 10:14:32;;;;;;;1.15;1.15;;;;;;;3.20;90.39;101104.91;4988467;28;20022;-74
2023/01/28 10:17:06;;;;;;;;;;;;;;;3.24;90.47;101103.34;5005293;28;20026;-70
2023/01/28 10:19:40;;;;;;;0.40;0.40;;;;;;;3.18;90.45;101086.03;4988260;28;19920;-71
2023/01/28 10:22:25;;;;;;;0.50;0.50;;;;;;;3.22;90.52;101081.88;5004092;28;20045;-71
2023/01/28 10:25:18;;;;;;;0.50;0.50;;;;;;;3.26;90.77;101082.84;5004471;28;20046;-71
2023/01/28 10:27:45;;;;;;;0.50;0.50;;;;;;;2.92;90.59;101027.03;5004241;28;20030;-71
2023/01/28 10:30:21;;;;;;;1.33;1.33;;;;;;;3.29;90.93;101083.81;4972031;28;20503;-72
2023/01/28 10:33:00;;;;;;;0.50;0.50;;;;;;;3.32;90.97;101088.19;5004799;28;20038;-71
2023/01/28 10:35:26;;;;;;;0.50;0.50;;;;;;;3.37;91.18;101081.47;5004454;28;20037;-70
2023/01/28 10:38:01;;;;;;;0.43;0.43;;;;;;;3.39;91.12;101072.13;5004330;28;20030;-71
2023/01/28 10:40:27;;;;;;;0.50;0.50;;;;;;;3.49;91.24;101065.59;5004233;28;20045;-71
2023/01/28 10:42:53;;;;;;;0.90;0.90;;;;;;;3.57;91.20;101070.97;4971877;28;20133;-71
2023/01/28 10:45:28;;;;;;;0.50;0.50;;;;;;;3.53;90.82;101064.03;5086650;28;20074;-71
2023/01/28 10:48:01;;;;;;;0.50;0.50;;;;;;;3.53;91.07;101071.72;5106515;28;20380;-72
2023/01/28 10:50:29;;;;;;;0.50;0.50;;;;;;;3.47;91.17;101068.13;5106680;28;20080;-71
2023/01/28 10:53:05;;;;;;;0.50;0.50;;;;;;;3.54;90.86;101069.19;5107017;28;20020;-71
2023/01/28 10:55:43;;;;;;;0.50;0.50;;;;;;;3.53;91.15;101061.44;5106444;28;20055;-71
2023/01/28 10:58:18;;;;;;;0.50;0.50;;;;;;;3.54;91.17;101060.63;5106572;28;20036;-71
2023/01/28 11:00:44;;;;;;;0.50;0.50;;;;;;;3.61;91.08;101059.13;5106797;28;20028;-72
2023/01/28 11:03:17;;;;;;;0.50;0.50;;;;;;;3.67;91.12;101056.75;5107408;28;20103;-73
2023/01/28 11:05:50;;;;;;;0.50;0.50;;;;;;;3.69;91.27;101058.50;5107405;28;20103;-71
2023/01/28 11:08:17;;;;;;;0.50;0.50;;;;;;;3.68;91.27;101050.75;5107008;28;20028;-72
2023/01/28 11:10:44;;;;;;;0.50;0.50;;;;;;;3.71;91.39;101040.59;5106414;28;20024;-72
2023/01/28 11:13:21;;;;;;;0.50;0.50;;;;;;;3.78;91.49;101041.66;5105659;28;20023;-71
2023/01/28 11:15:59;;;;;;;0.50;0.50;;;;;;;3.85;91.39;101035.84;5105921;28;20083;-72
2023/01/28 11:18:57;;;;;;;0.50;0.50;;;;;;;3.88;91.50;101020.56;5105945;28;20515;-70
2023/01/28 11:21:28;;;;;;;0.50;0.50;;;;;;;4.00;91.77;101032.00;5080442;28;20032;-72
2023/01/28 11:24:23;;;;;;;0.52;0.52;;;;;;;4.09;91.66;101017.72;5105725;28;20028;-68
2023/01/28 11:26:52;;;;;;;0.50;0.50;;;;;;;4.19;91.90;101012.84;5102401;28;20040;-70
2023/01/28 11:29:23;;;;;;;0.50;0.50;;;;;;;4.25;92.38;101007.00;5105680;28;20668;-67
2023/01/28 11:31:49;;;;;;;0.70;0.70;;;;;;;4.30;91.86;101010.53;5086741;28;20024;-73
2023/01/28 11:34:18;;;;;;;0.50;0.50;;;;;;;4.32;91.90;101001.19;5105302;28;20046;-68
2023/01/28 11:36:54;;;;;;;0.50;0.50;;;;;;;4.36;91.83;101015.84;5105514;28;20066;-69
2023/01/28 11:39:27;;;;;;;0.50;0.50;;;;;;;4.49;92.30;101000.78;5086959;28;20095;-69
2023/01/28 11:41:53;;;;;;;0.50;0.50;;;;;;;4.53;92.43;100997.44;5087179;28;20099;-69
2023/01/28 11:44:23;;;;;;;0.50;0.50;;;;;;;4.52;91.66;100991.41;5105037;28;20044;-69
2023/01/28 11:47:24;;;;;;;0.50;0.50;;;;;;;4.57;91.81;100981.25;5103009;28;20396;-69
2023/01/28 11:49:58;;;;;;;0.50;0.50;;;;;;;4.61;91.69;100977.94;5105021;28;20032;-70
2023/01/28 11:52:56;;;;;;;0.50;0.50;;;;;;;4.59;91.55;100967.63;5104479;28;20024;-70
2023/01/28 11:55:54;;;;;;;0.50;0.50;;;;;;;4.68;91.90;100964.41;5104550;28;20020;-71
2023/01/28 11:58:29;;;;;;;0.50;0.50;;;;;;;4.71;91.43;100950.75;5085880;28;20495;-76
2023/01/28 12:01:21;;;;;;;0.50;0.50;;;;;;;4.73;91.32;100933.66;5104052;28;20032;-74
2023/01/28 12:04:11;;;;;;;0.70;0.70;;;;;;;4.68;91.27;100936.09;5105059;28;20079;-74
2023/01/28 12:07:01;;;;;;;0.50;0.50;;;;;;;4.67;91.35;100949.81;5103825;28;20340;-77
2023/01/28 12:10:08;;;;;;;0.50;0.50;;;;;;;4.68;91.36;100953.25;5104800;28;20084;-75
2023/01/28 12:13:11;;;;;;;0.60;0.60;;;;;;;4.69;91.33;100957.56;5105111;28;20107;-75
2023/01/28 12:15:50;;;;;;;0.90;0.90;;;;;;;4.62;91.13;100960.81;5104784;28;20032;-74
2023/01/28 12:18:21;;;;;;;0.50;0.50;;;;;;;4.61;91.32;100970.22;5086514;28;20050;-73
2023/01/28 12:20:55;;;;;;;0.60;0.60;;;;;;;4.64;91.80;100966.84;5104833;28;20102;-74